Time;durP1;ratioP1;P1;durP2;ratioP2;P2;SDS_P1;SDS_P2;PMS_P1;PMS_P2;Temp;Humidity;BMP_temperature;BMP_pressure;BME280_temperature;BME280_humidity;BME280_pressure;Samples;Min_cycle;Max_cycle;Signal;HPM_P1;HPM_P2
2024/01/02 00:00:02;;;;;;;23.17;3.83;;;4.80;99.90;;;;;;5041991;28;20045;-63
2024/01/02 00:02:28;;;;;;;13.35;2.80;;;4.90;99.90;;;;;;5006327;28;20045;-63
2024/01/02 00:04:54;;;;;;;19.98;3.05;;;4.90;99.90;;;;;;5028359;28;20039;-63
2024/01/02 00:07:19;;;;;;;18.63;3.20;;;4.90;99.90;;;;;;5043645;28;20094;-63
2024/01/02 00:09:45;;;;;;;18.50;3.03;;;4.90;99.90;;;;;;5050759;28;20150;-63
2024/01/02 00:12:11;;;;;;;16.13;3.13;;;4.90;99.90;;;;;;5046354;28;20068;-63
2024/01/02 00:14:36;;;;;;;19.48;4.05;;;4.90;99.90;;;;;;5026658;28;20077;-63
2024/01/02 00:17:02;;;;;;;19.98;3.60;;;5.00;99.90;;;;;;5012353;28;20045;-64
2024/01/02 00:19:28;;;;;;;15.70;2.95;;;5.00;99.90;;;;;;5030301;28;20351;-64
2024/01/02 00:21:54;;;;;;;16.20;3.20;;;5.00;99.90;;;;;;5007408;28;20518;-64
2024/01/02 00:24:20;;;;;;;11.43;2.78;;;5.10;99.90;;;;;;5041285;28;20049;-64
2024/01/02 00:26:45;;;;;;;14.77;3.88;;;5.00;99.90;;;;;;5027787;28;20045;-63
2024/01/02 00:29:11;;;;;;;17.98;3.08;;;5.00;99.90;;;;;;5044498;28;20063;-63
2024/01/02 00:31:37;;;;;;;23.15;2.90;;;5.10;99.90;;;;;;5026932;28;20057;-63
2024/01/02 00:34:02;;;;;;;15.40;2.78;;;5.10;99.90;;;;;;5047203;28;20041;-63
2024/01/02 00:36:28;;;;;;;14.45;2.70;;;5.10;99.90;;;;;;5028340;28;20044;-63
2024/01/02 00:38:54;;;;;;;12.45;2.30;;;5.10;99.90;;;;;;5033366;28;20199;-63
2024/01/02 00:41:19;;;;;;;16.75;3.22;;;5.10;99.90;;;;;;5049233;28;20052;-63
2024/01/02 00:43:45;;;;;;;14.55;2.95;;;5.10;99.90;;;;;;5057607;28;20496;-63
2024/01/02 00:46:11;;;;;;;14.07;2.45;;;5.20;99.90;;;;;;5038686;28;20045;-63
2024/01/02 00:48:36;;;;;;;17.27;2.65;;;5.20;99.90;;;;;;5039545;28;20038;-64
2024/01/02 00:51:02;;;;;;;21.20;3.00;;;5.20;99.90;;;;;;5045209;28;20422;-63
2024/01/02 00:53:28;;;;;;;15.25;2.47;;;5.20;99.90;;;;;;5025883;28;20068;-64
2024/01/02 00:55:54;;;;;;;13.45;2.05;;;5.10;99.90;;;;;;5052400;28;20387;-63
2024/01/02 00:58:19;;;;;;;17.42;2.97;;;5.20;99.90;;;;;;5052788;28;20056;-63
2024/01/02 01:00:45;;;;;;;12.38;1.92;;;5.20;99.90;;;;;;5027095;28;20041;-64
2024/01/02 01:03:11;;;;;;;16.58;2.55;;;5.30;99.90;;;;;;5054929;28;20522;-63
2024/01/02 01:05:37;;;;;;;13.23;2.13;;;5.30;99.90;;;;;;5053790;28;20053;-63
2024/01/02 01:08:03;;;;;;;8.25;1.48;;;5.40;99.90;;;;;;5050378;28;20145;-64
2024/01/02 01:10:29;;;;;;;19.30;2.20;;;5.40;99.90;;;;;;5049265;28;20045;-64
2024/01/02 01:12:54;;;;;;;13.15;1.65;;;5.40;99.90;;;;;;5046007;28;20056;-63
2024/01/02 01:15:20;;;;;;;7.05;1.98;;;5.50;99.90;;;;;;5032603;28;20272;-63
2024/01/02 01:17:45;;;;;;;7.80;1.40;;;5.50;99.90;;;;;;5050112;28;20112;-63
2024/01/02 01:20:11;;;;;;;7.32;2.22;;;5.50;99.90;;;;;;5039279;28;20064;-63
2024/01/02 01:22:43;;;;;;;9.95;2.85;;;5.50;99.90;;;;;;5047268;28;20106;-63
2024/01/02 01:25:08;;;;;;;8.43;1.63;;;5.50;99.90;;;;;;5042060;28;20083;-64
2024/01/02 01:27:34;;;;;;;7.00;1.63;;;5.60;99.90;;;;;;5030846;28;20093;-63
2024/01/02 01:30:01;;;;;;;10.38;1.65;;;5.60;99.90;;;;;;5027122;28;20041;-63
2024/01/02 01:32:28;;;;;;;9.30;1.60;;;5.60;99.90;;;;;;5046823;28;20129;-63
2024/01/02 01:34:54;;;;;;;10.15;1.52;;;5.60;99.90;;;;;;5031266;28;20112;-63
2024/01/02 01:37:19;;;;;;;13.07;1.85;;;5.60;99.90;;;;;;5054141;28;20467;-64
2024/01/02 01:39:45;;;;;;;16.75;2.10;;;5.70;99.90;;;;;;5028161;28;20045;-64
2024/01/02 01:42:11;;;;;;;13.90;2.42;;;5.70;99.90;;;;;;5029068;28;20451;-63
2024/01/02 01:44:36;;;;;;;12.45;1.90;;;5.70;99.90;;;;;;5053666;28;20076;-64
2024/01/02 01:47:04;;;;;;;15.60;1.48;;;5.60;99.90;;;;;;5047293;28;20037;-64
2024/01/02 01:49:30;;;;;;;5.88;1.63;;;5.70;99.90;;;;;;5046547;28;20044;-64
2024/01/02 01:51:59;;;;;;;7.28;1.60;;;5.70;99.90;;;;;;5039359;28;20048;-63
2024/01/02 01:54:25;;;;;;;9.95;1.75;;;5.70;99.90;;;;;;5044355;28;20574;-64
2024/01/02 01:56:52;;;;;;;7.60;1.77;;;5.70;99.90;;;;;;5044066;28;20053;-63
2024/01/02 01:59:18;;;;;;;11.63;2.50;;;5.70;99.90;;;;;;5025845;28;20423;-64
2024/01/02 02:01:46;;;;;;;11.73;3.42;;;5.60;99.90;;;;;;5042215;28;20042;-63
2024/01/02 02:04:13;;;;;;;11.40;2.38;;;5.70;99.90;;;;;;5041767;28;20099;-63
2024/01/02 02:06:39;;;;;;;8.00;1.65;;;5.60;99.90;;;;;;5043368;28;20044;-63
2024/01/02 02:09:05;;;;;;;3.08;0.65;;;5.70;99.90;;;;;;5027215;28;20571;-63
2024/01/02 02:11:32;;;;;;;8.70;1.40;;;5.70;99.90;;;;;;5053421;28;20172;-64
2024/01/02 02:13:57;;;;;;;10.20;1.55;;;5.70;99.90;;;;;;5046430;28;20045;-64
2024/01/02 02:16:23;;;;;;;5.15;0.82;;;5.70;99.90;;;;;;5030668;28;20513;-64
2024/01/02 02:18:49;;;;;;;9.27;1.48;;;5.70;99.90;;;;;;5043226;28;20052;-64
2024/01/02 02:21:15;;;;;;;7.13;1.38;;;5.70;99.90;;;;;;5033596;28;20120;-64
2024/01/02 02:23:40;;;;;;;9.75;1.20;;;5.70;99.90;;;;;;5050732;28;20055;-63
2024/01/02 02:26:06;;;;;;;11.23;1.63;;;5.70;99.90;;;;;;5045692;28;20059;-63
2024/01/02 02:28:32;;;;;;;8.13;1.40;;;5.70;99.90;;;;;;5030495;28;20048;-64
2024/01/02 02:30:57;;;;;;;12.93;1.27;;;5.80;99.90;;;;;;5051965;28;20045;-64
2024/01/02 02:33:23;;;;;;;12.38;1.60;;;5.80;99.90;;;;;;5046223;28;20498;-63
2024/01/02 02:35:49;;;;;;;11.98;1.42;;;5.90;99.90;;;;;;5037440;28;20048;-63
2024/01/02 02:38:15;;;;;;;11.32;2.10;;;5.90;99.90;;;;;;5053901;28;20411;-64
2024/01/02 02:40:41;;;;;;;6.80;1.55;;;5.90;99.90;;;;;;5027572;28;20083;-63
2024/01/02 02:43:07;;;;;;;8.52;1.50;;;5.90;99.90;;;;;;5048061;28;20076;-64
2024/01/02 02:45:34;;;;;;;6.03;1.17;;;5.90;99.90;;;;;;5044925;28;20049;-64
2024/01/02 02:47:59;;;;;;;12.98;1.90;;;5.90;99.90;;;;;;5057556;28;20049;-63
2024/01/02 02:50:25;;;;;;;5.43;1.60;;;6.00;99.90;;;;;;5041552;28;20092;-63
2024/01/02 02:52:51;;;;;;;9.75;1.58;;;5.90;99.90;;;;;;5041961;28;20427;-64
2024/01/02 02:55:17;;;;;;;8.05;1.80;;;5.90;99.90;;;;;;5047613;28;20540;-64
2024/01/02 02:57:42;;;;;;;12.13;1.55;;;5.90;99.90;;;;;;5051728;28;20467;-64
2024/01/02 03:00:10;;;;;;;10.98;1.50;;;5.90;99.90;;;;;;5025048;28;20102;-63
2024/01/02 03:02:35;;;;;;;13.45;1.65;;;6.00;99.90;;;;;;5043826;28;20045;-63
2024/01/02 03:05:01;;;;;;;6.78;1.23;;;6.00;99.90;;;;;;5043958;28;20047;-63
2024/01/02 03:07:27;;;;;;;14.85;2.20;;;6.00;99.90;;;;;;5025372;28;20331;-63
2024/01/02 03:09:52;;;;;;;5.80;1.38;;;6.00;99.90;;;;;;5047652;28;20040;-63
2024/01/02 03:12:18;;;;;;;13.27;1.95;;;6.00;99.90;;;;;;5041974;28;20056;-63
2024/01/02 03:14:44;;;;;;;10.05;1.88;;;6.00;99.90;;;;;;5027958;28;20106;-63
2024/01/02 03:17:10;;;;;;;7.55;1.92;;;6.00;99.90;;;;;;5043328;28;20045;-64
2024/01/02 03:19:36;;;;;;;4.80;1.05;;;6.00;99.90;;;;;;5026017;28;20118;-64
2024/01/02 03:22:01;;;;;;;10.18;1.70;;;6.00;99.90;;;;;;5029999;28;20061;-63
2024/01/02 03:24:27;;;;;;;11.05;1.80;;;6.00;99.90;;;;;;5042177;28;20049;-64
2024/01/02 03:26:53;;;;;;;10.73;1.98;;;6.00;99.90;;;;;;5043620;28;20057;-64
2024/01/02 03:29:18;;;;;;;20.35;2.30;;;6.00;99.90;;;;;;5046652;28;20072;-63
2024/01/02 03:31:44;;;;;;;9.75;2.22;;;6.00;99.90;;;;;;5042360;28;20449;-63
2024/01/02 03:34:11;;;;;;;3.20;0.60;;;6.00;99.90;;;;;;5039385;28;20047;-64
2024/01/02 03:36:36;;;;;;;5.95;1.58;;;6.00;99.90;;;;;;5052366;28;20052;-63
2024/01/02 03:39:04;;;;;;;5.20;1.38;;;6.00;99.90;;;;;;5042440;28;20072;-64
2024/01/02 03:41:30;;;;;;;8.05;1.67;;;6.00;99.90;;;;;;5047873;28;20067;-64
2024/01/02 03:43:56;;;;;;;7.28;1.83;;;6.10;99.90;;;;;;5051518;28;20402;-63
2024/01/02 03:46:21;;;;;;;3.65;1.23;;;6.10;99.90;;;;;;5053387;28;20091;-63
2024/01/02 03:48:47;;;;;;;14.88;2.30;;;6.20;99.90;;;;;;5050664;28;20355;-63
2024/01/02 03:51:13;;;;;;;7.60;0.93;;;6.10;99.90;;;;;;5044356;28;20039;-63
2024/01/02 03:53:39;;;;;;;8.70;2.03;;;6.10;99.90;;;;;;5027752;28;20040;-63
2024/01/02 03:56:05;;;;;;;5.20;1.20;;;6.10;99.90;;;;;;5037405;28;20053;-64
2024/01/02 03:58:31;;;;;;;5.00;1.30;;;6.10;99.90;;;;;;5046122;28;20405;-63
2024/01/02 04:00:57;;;;;;;10.52;1.40;;;6.10;99.90;;;;;;5050382;28;20291;-64
2024/01/02 04:03:23;;;;;;;8.88;1.60;;;6.10;99.90;;;;;;5028082;28;20044;-64
2024/01/02 04:05:49;;;;;;;4.68;0.82;;;6.20;99.90;;;;;;5029583;28;20043;-64
2024/01/02 04:08:15;;;;;;;7.57;1.60;;;6.10;99.90;;;;;;5047160;28;20479;-63
2024/01/02 04:10:42;;;;;;;13.60;1.60;;;6.20;99.90;;;;;;5056193;28;20345;-63
2024/01/02 04:13:09;;;;;;;7.57;1.30;;;6.10;99.90;;;;;;5049058;28;20479;-63
2024/01/02 04:15:35;;;;;;;7.05;1.20;;;6.20;99.90;;;;;;5046311;28;20053;-63
2024/01/02 04:18:02;;;;;;;5.40;1.20;;;6.20;99.90;;;;;;5031989;28;20040;-63
2024/01/02 04:20:27;;;;;;;5.72;0.80;;;6.20;99.90;;;;;;5037583;28;20063;-63
2024/01/02 04:22:54;;;;;;;4.00;1.27;;;6.10;99.90;;;;;;5042740;28;20052;-64
2024/01/02 04:25:23;;;;;;;8.15;1.42;;;6.20;99.90;;;;;;5051742;28;20657;-63
2024/01/02 04:27:51;;;;;;;6.13;1.20;;;6.20;99.90;;;;;;5026176;28;20041;-64
2024/01/02 04:30:17;;;;;;;4.93;1.23;;;6.20;99.90;;;;;;5051822;28;20060;-64
2024/01/02 04:32:43;;;;;;;3.90;1.10;;;6.10;99.90;;;;;;5054603;28;20538;-64
2024/01/02 04:35:08;;;;;;;9.82;1.23;;;6.20;99.90;;;;;;5026683;28;20114;-63
2024/01/02 04:37:34;;;;;;;5.60;1.20;;;6.10;99.90;;;;;;5050144;28;20043;-63
2024/01/02 04:40:00;;;;;;;8.88;1.73;;;6.20;99.90;;;;;;5043782;28;20053;-63
2024/01/02 04:42:25;;;;;;;6.28;1.00;;;6.20;99.90;;;;;;5044517;28;20084;-63
2024/01/02 04:44:51;;;;;;;4.30;1.05;;;6.20;99.90;;;;;;5020870;28;20134;-63
2024/01/02 04:47:17;;;;;;;10.32;1.75;;;6.20;99.90;;;;;;5027823;28;20438;-63
2024/01/02 04:49:42;;;;;;;2.28;0.57;;;6.10;99.90;;;;;;5025715;28;20044;-63
2024/01/02 04:52:08;;;;;;;3.90;0.77;;;6.20;99.90;;;;;;5037626;28;20481;-63
2024/01/02 04:54:34;;;;;;;8.52;1.35;;;6.20;99.90;;;;;;5051911;28;20348;-63
2024/01/02 04:57:00;;;;;;;2.10;0.50;;;6.10;99.90;;;;;;5040690;28;20045;-64
2024/01/02 04:59:27;;;;;;;5.07;0.93;;;6.20;99.90;;;;;;5045222;28;20064;-64
2024/01/02 05:01:52;;;;;;;5.22;1.13;;;6.20;99.90;;;;;;5049029;28;20521;-63
2024/01/02 05:04:18;;;;;;;10.63;1.20;;;6.20;99.90;;;;;;5049044;28;20037;-64
2024/01/02 05:06:44;;;;;;;10.25;1.02;;;6.20;99.90;;;;;;5057518;28;20471;-63
2024/01/02 05:09:09;;;;;;;4.18;1.08;;;6.20;99.90;;;;;;5057974;28;20887;-64
2024/01/02 05:11:38;;;;;;;9.25;1.67;;;6.20;99.90;;;;;;5049300;28;20522;-64
2024/01/02 05:14:04;;;;;;;1.27;0.55;;;6.20;99.90;;;;;;5037835;28;20056;-64
2024/01/02 05:16:30;;;;;;;3.53;0.63;;;6.20;99.90;;;;;;5049959;28;20476;-64
2024/01/02 05:18:56;;;;;;;1.25;0.50;;;6.20;99.90;;;;;;5031919;28;20531;-64
2024/01/02 05:21:22;;;;;;;6.20;0.57;;;6.10;99.90;;;;;;5051353;28;20053;-63
2024/01/02 05:23:47;;;;;;;8.00;1.08;;;6.20;99.90;;;;;;5044438;28;20548;-64
2024/01/02 05:26:13;;;;;;;12.57;1.48;;;6.20;99.90;;;;;;5049155;28;20044;-64
2024/01/02 05:28:39;;;;;;;4.72;1.20;;;6.20;99.90;;;;;;5048932;28;20115;-64
2024/01/02 05:31:04;;;;;;;2.67;0.47;;;6.20;99.90;;;;;;5046761;28;20502;-64
2024/01/02 05:33:30;;;;;;;5.38;0.70;;;6.20;99.90;;;;;;5010974;28;20045;-64
2024/01/02 05:35:56;;;;;;;5.35;1.13;;;6.20;99.90;;;;;;5026147;28;20040;-64
2024/01/02 05:38:23;;;;;;;0.30;0.30;;;6.20;99.90;;;;;;5055159;28;20570;-64
2024/01/02 05:40:48;;;;;;;0.15;0.15;;;6.20;99.90;;;;;;5048770;28;20036;-63
2024/01/02 05:43:14;;;;;;;0.57;0.47;;;6.30;99.90;;;;;;5045820;28;20082;-64
2024/01/02 05:45:40;;;;;;;5.90;0.90;;;6.20;99.90;;;;;;5044502;28;20041;-63
2024/01/02 05:48:07;;;;;;;1.25;0.47;;;6.30;99.90;;;;;;5049646;28;20048;-64
2024/01/02 05:50:32;;;;;;;2.25;0.45;;;6.20;99.90;;;;;;5013535;28;20055;-64
2024/01/02 05:52:59;;;;;;;10.52;1.08;;;6.20;99.90;;;;;;5047656;28;20052;-64
2024/01/02 05:55:25;;;;;;;5.82;1.55;;;6.30;99.90;;;;;;5031705;28;20049;-64
2024/01/02 05:57:51;;;;;;;1.55;0.22;;;6.20;99.90;;;;;;5047442;28;20044;-64
2024/01/02 06:00:17;;;;;;;1.70;0.60;;;6.20;99.90;;;;;;5044619;28;20128;-64
2024/01/02 06:02:42;;;;;;;1.25;0.47;;;6.30;99.90;;;;;;5047983;28;20095;-64
2024/01/02 06:05:08;;;;;;;2.78;0.55;;;6.20;99.90;;;;;;5025744;28;20044;-64
2024/01/02 06:07:34;;;;;;;2.22;0.80;;;6.20;99.90;;;;;;5035143;28;20132;-63
2024/01/02 06:10:00;;;;;;;1.00;0.28;;;6.20;99.90;;;;;;5050284;28;20056;-64
2024/01/02 06:12:26;;;;;;;4.85;1.02;;;6.20;99.90;;;;;;5044175;28;20053;-63
2024/01/02 06:14:51;;;;;;;5.78;0.30;;;6.20;99.90;;;;;;5042317;28;20080;-64
2024/01/02 06:17:17;;;;;;;4.70;0.80;;;6.20;99.90;;;;;;5045979;28;20107;-64
2024/01/02 06:19:43;;;;;;;6.32;0.82;;;6.30;99.90;;;;;;5056601;28;20570;-63
2024/01/02 06:22:09;;;;;;;2.47;1.08;;;6.20;99.90;;;;;;5041026;28;20091;-64
2024/01/02 06:24:34;;;;;;;1.13;0.30;;;6.20;99.90;;;;;;5043349;28;20438;-63
2024/01/02 06:27:00;;;;;;;4.45;0.52;;;6.30;99.90;;;;;;5026178;28;20451;-64
2024/01/02 06:29:26;;;;;;;0.32;0.32;;;6.30;99.90;;;;;;5047333;28;20055;-64
2024/01/02 06:31:53;;;;;;;3.45;0.57;;;6.20;99.90;;;;;;5027267;28;20083;-64
2024/01/02 06:34:19;;;;;;;1.77;0.43;;;6.20;99.90;;;;;;5043821;28;20183;-64
2024/01/02 06:36:44;;;;;;;1.25;0.40;;;6.30;99.90;;;;;;5024042;28;20140;-64
2024/01/02 06:39:10;;;;;;;1.45;0.77;;;6.20;99.90;;;;;;5041022;28;20052;-64
2024/01/02 06:41:36;;;;;;;0.30;0.22;;;6.20;99.90;;;;;;5042877;28;20406;-63
2024/01/02 06:44:02;;;;;;;4.78;0.70;;;6.20;99.90;;;;;;5046379;28;20040;-64
2024/01/02 06:46:27;;;;;;;0.38;0.38;;;6.20;99.90;;;;;;5047023;28;20040;-63
2024/01/02 06:48:54;;;;;;;2.33;0.47;;;6.20;99.90;;;;;;5041679;28;20049;-63
2024/01/02 06:51:20;;;;;;;0.75;0.40;;;6.20;99.90;;;;;;5043195;28;20037;-63
2024/01/02 06:53:45;;;;;;;0.30;0.30;;;6.20;99.90;;;;;;5023458;28;20581;-63
2024/01/02 06:56:11;;;;;;;2.35;0.50;;;6.20;99.90;;;;;;5045157;28;20119;-63
2024/01/02 06:58:37;;;;;;;0.85;0.68;;;6.20;99.90;;;;;;5049447;28;20049;-63
2024/01/02 07:01:03;;;;;;;0.73;0.10;;;6.20;99.90;;;;;;5024552;28;20041;-64
2024/01/02 07:03:29;;;;;;;1.85;0.30;;;6.30;99.90;;;;;;5033454;28;20040;-63
2024/01/02 07:05:54;;;;;;;2.72;0.30;;;6.20;99.90;;;;;;5045540;28;20040;-63
2024/01/02 07:08:20;;;;;;;0.30;0.30;;;6.20;99.90;;;;;;5045193;28;20751;-63
2024/01/02 07:10:46;;;;;;;0.30;0.30;;;6.20;99.90;;;;;;5053964;28;20141;-64
2024/01/02 07:13:12;;;;;;;2.88;0.20;;;6.20;99.90;;;;;;5035165;28;20037;-63
2024/01/02 07:15:37;;;;;;;0.25;0.22;;;6.20;99.90;;;;;;5042838;28;20049;-63
2024/01/02 07:18:03;;;;;;;0.00;0.00;;;6.20;99.90;;;;;;5040658;28;20044;-64
2024/01/02 07:20:29;;;;;;;1.85;0.30;;;6.20;99.90;;;;;;5049247;28;20498;-63
2024/01/02 07:22:55;;;;;;;3.10;0.30;;;6.30;99.90;;;;;;5051570;28;20068;-64
2024/01/02 07:25:22;;;;;;;0.10;0.10;;;6.30;99.90;;;;;;5042211;28;20465;-63
2024/01/02 07:27:48;;;;;;;2.50;0.60;;;6.20;99.90;;;;;;5054243;28;20047;-63
2024/01/02 07:30:14;;;;;;;0.17;0.17;;;6.20;99.90;;;;;;5041831;28;20041;-63
2024/01/02 07:32:39;;;;;;;2.17;0.38;;;6.30;99.90;;;;;;5046843;28;20046;-64
2024/01/02 07:35:06;;;;;;;0.98;0.20;;;6.20;99.90;;;;;;5040378;28;20131;-63
2024/01/02 07:37:34;;;;;;;1.13;0.20;;;6.20;99.90;;;;;;5041640;28;20041;-63
2024/01/02 07:40:00;;;;;;;4.25;0.52;;;6.20;99.90;;;;;;5022597;28;20041;-63
2024/01/02 07:42:25;;;;;;;0.63;0.43;;;6.10;99.90;;;;;;5024819;28;20048;-63
2024/01/02 07:44:51;;;;;;;0.20;0.20;;;6.20;99.90;;;;;;5041599;28;20447;-63
2024/01/02 07:47:17;;;;;;;1.13;0.40;;;6.20;99.90;;;;;;5045121;28;20515;-63
2024/01/02 07:49:43;;;;;;;0.52;0.28;;;6.20;99.90;;;;;;5012033;28;20049;-64
2024/01/02 07:52:09;;;;;;;0.70;0.30;;;6.20;99.90;;;;;;5038691;28;20524;-63
2024/01/02 07:54:41;;;;;;;0.35;0.20;;;6.20;99.90;;;;;;5027631;28;20049;-63
2024/01/02 07:57:06;;;;;;;0.52;0.43;;;6.30;99.90;;;;;;5026073;28;20055;-63
2024/01/02 07:59:32;;;;;;;6.05;0.20;;;6.30;99.90;;;;;;5038702;28;20052;-63
2024/01/02 08:01:58;;;;;;;1.20;0.40;;;6.20;99.90;;;;;;5041423;28;20079;-63
2024/01/02 08:04:24;;;;;;;1.42;0.60;;;6.20;99.90;;;;;;5044246;28;20570;-63
2024/01/02 08:06:50;;;;;;;0.22;0.10;;;6.20;99.90;;;;;;5043492;28;20037;-63
2024/01/02 08:09:16;;;;;;;0.15;0.15;;;6.20;99.90;;;;;;5040451;28;20072;-63
2024/01/02 08:11:41;;;;;;;0.20;0.20;;;6.20;99.90;;;;;;5044462;28;20815;-63
2024/01/02 08:14:07;;;;;;;0.05;0.05;;;6.20;99.90;;;;;;5049210;28;20046;-63
2024/01/02 08:16:33;;;;;;;0.10;0.10;;;6.30;99.90;;;;;;5029950;28;20041;-63
2024/01/02 08:18:59;;;;;;;0.47;0.40;;;6.20;99.90;;;;;;5041844;28;20092;-63
2024/01/02 08:21:26;;;;;;;0.20;0.20;;;6.30;99.90;;;;;;5032363;28;20056;-63
2024/01/02 08:23:52;;;;;;;0.30;0.30;;;6.30;99.90;;;;;;5040167;28;20515;-63
2024/01/02 08:26:18;;;;;;;0.43;0.20;;;6.30;99.90;;;;;;5042911;28;20041;-63
2024/01/02 08:28:44;;;;;;;0.28;0.20;;;6.30;99.90;;;;;;5056149;28;20037;-63
2024/01/02 08:31:10;;;;;;;0.45;0.45;;;6.40;99.90;;;;;;5025616;28;20068;-63
2024/01/02 08:33:36;;;;;;;2.00;0.93;;;6.40;99.90;;;;;;5055821;28;20067;-63
2024/01/02 08:36:02;;;;;;;0.20;0.20;;;6.40;99.90;;;;;;5043662;28;20585;-63
2024/01/02 08:38:28;;;;;;;0.20;0.20;;;6.50;99.90;;;;;;5046616;28;20098;-63
2024/01/02 08:40:54;;;;;;;0.35;0.30;;;6.60;99.90;;;;;;5039732;28;20044;-63
2024/01/02 08:43:19;;;;;;;1.02;0.10;;;6.60;99.90;;;;;;5048608;28;20124;-63
2024/01/02 08:45:45;;;;;;;0.20;0.20;;;6.70;99.90;;;;;;5058021;28;20387;-63
2024/01/02 08:48:11;;;;;;;0.90;0.20;;;6.70;99.90;;;;;;5044922;28;20423;-64
2024/01/02 08:50:41;;;;;;;0.20;0.20;;;6.80;99.90;;;;;;5044372;28;20545;-63
2024/01/02 08:53:11;;;;;;;2.33;0.30;;;6.80;99.90;;;;;;5040851;28;20033;-64
2024/01/02 08:55:38;;;;;;;5.18;0.45;;;6.90;99.90;;;;;;5044325;28;20397;-64
2024/01/02 08:58:04;;;;;;;2.50;0.40;;;6.90;99.90;;;;;;5042691;28;20400;-65
2024/01/02 09:00:31;;;;;;;3.35;0.50;;;6.90;99.90;;;;;;5045133;28;20037;-64
2024/01/02 09:03:04;;;;;;;1.52;0.40;;;6.90;99.90;;;;;;5042776;28;20432;-64
2024/01/02 09:05:29;;;;;;;0.50;0.50;;;6.90;99.90;;;;;;5046779;28;20576;-64
2024/01/02 09:07:55;;;;;;;0.90;0.47;;;6.90;99.90;;;;;;5049549;28;20049;-65
2024/01/02 09:10:22;;;;;;;0.68;0.38;;;6.90;99.90;;;;;;5053406;28;20354;-64
2024/01/02 09:12:48;;;;;;;1.88;0.63;;;6.90;99.90;;;;;;5033629;28;20037;-63
2024/01/02 09:15:14;;;;;;;0.45;0.45;;;6.90;99.90;;;;;;5024714;28;20588;-63
2024/01/02 09:17:40;;;;;;;2.30;0.80;;;6.90;99.90;;;;;;5047432;28;20036;-63
2024/01/02 09:20:06;;;;;;;1.05;0.57;;;7.00;99.90;;;;;;5033640;28;20525;-63
2024/01/02 09:22:32;;;;;;;0.68;0.68;;;7.00;99.90;;;;;;5056264;28;20112;-63
2024/01/02 09:25:01;;;;;;;1.08;0.98;;;7.00;99.90;;;;;;5048936;28;20586;-63
2024/01/02 09:27:29;;;;;;;0.63;0.63;;;7.00;99.90;;;;;;5025872;28;20132;-63
2024/01/02 09:29:56;;;;;;;0.80;0.80;;;7.00;99.90;;;;;;5051166;28;20044;-63
2024/01/02 09:32:21;;;;;;;3.28;1.25;;;7.00;99.90;;;;;;5045089;28;20059;-63
2024/01/02 09:34:47;;;;;;;0.60;0.60;;;7.10;99.90;;;;;;5011171;28;20049;-63
2024/01/02 09:37:14;;;;;;;2.40;0.77;;;7.00;99.90;;;;;;5043964;28;20045;-63
2024/01/02 09:39:40;;;;;;;1.38;0.98;;;7.10;99.90;;;;;;5028932;28;20466;-63
2024/01/02 09:42:29;;;;;;;3.50;0.90;;;7.10;99.90;;;;;;5009700;28;20098;-63
2024/01/02 09:45:43;;;;;;;4.55;1.00;;;7.20;99.90;;;;;;5026945;28;20490;-63
2024/01/02 09:48:18;;;;;;;1.20;1.10;;;7.10;99.90;;;;;;5016836;28;20072;-64
2024/01/02 09:51:04;;;;;;;4.95;0.95;;;7.30;99.90;;;;;;5043058;28;20056;-63
2024/01/02 09:53:49;;;;;;;5.38;1.10;;;7.30;99.90;;;;;;5024104;28;20449;-64
2024/01/02 09:56:33;;;;;;;6.40;1.95;;;7.30;99.90;;;;;;5043291;28;20364;-63
2024/01/02 09:59:10;;;;;;;2.83;1.48;;;7.40;99.90;;;;;;5052483;28;20044;-63
2024/01/02 10:01:44;;;;;;;9.05;1.45;;;7.40;99.90;;;;;;5046264;28;20448;-63
2024/01/02 10:04:34;;;;;;;4.68;1.92;;;7.50;99.90;;;;;;5042333;28;20041;-63
2024/01/02 10:07:18;;;;;;;6.25;2.58;;;7.50;99.90;;;;;;5043632;28;20451;-63
2024/01/02 10:10:17;;;;;;;6.60;1.98;;;7.50;99.90;;;;;;5055564;28;20052;-64
2024/01/02 10:13:04;;;;;;;4.07;1.80;;;7.60;99.90;;;;;;5051060;28;20079;-63
2024/01/02 10:15:38;;;;;;;8.85;2.20;;;7.80;99.90;;;;;;5048651;28;20041;-63
2024/01/02 10:18:17;;;;;;;10.40;2.08;;;7.90;99.90;;;;;;5024382;28;20391;-63
2024/01/02 10:21:03;;;;;;;9.90;2.03;;;8.00;99.90;;;;;;5045919;28;20049;-63
2024/01/02 10:23:53;;;;;;;19.67;2.15;;;8.10;99.90;;;;;;5049671;28;20060;-63
2024/01/02 10:26:21;;;;;;;14.45;2.33;;;8.20;99.90;;;;;;5041931;28;20045;-63
2024/01/02 10:28:49;;;;;;;10.15;1.80;;;8.30;99.90;;;;;;5028016;28;20044;-64
2024/01/02 10:31:52;;;;;;;20.02;2.80;;;8.40;99.90;;;;;;5049047;28;20052;-63
2024/01/02 10:34:36;;;;;;;19.05;2.10;;;8.50;99.90;;;;;;5050054;28;20036;-63
2024/01/02 10:37:06;;;;;;;19.73;1.55;;;8.60;99.90;;;;;;5032048;28;20040;-63
2024/01/02 10:39:45;;;;;;;;;;;8.70;99.90;;;;;;5049661;28;20048;-63
2024/01/02 10:42:22;;;;;;;17.23;2.40;;;8.70;99.90;;;;;;5027724;28;19920;-63
2024/01/02 10:45:22;;;;;;;24.75;2.30;;;8.80;99.90;;;;;;5042946;28;20082;-63
2024/01/02 10:48:07;;;;;;;24.45;1.90;;;8.80;99.90;;;;;;5042285;28;20124;-63
2024/01/02 10:51:00;;;;;;;15.05;1.50;;;8.90;99.90;;;;;;5038555;28;20047;-63
2024/01/02 10:53:34;;;;;;;21.45;1.80;;;9.00;99.90;;;;;;5045549;28;20037;-63
2024/01/02 10:56:17;;;;;;;35.78;2.53;;;9.10;99.90;;;;;;5054620;28;20044;-63
2024/01/02 10:59:03;;;;;;;22.90;3.08;;;9.20;99.90;;;;;;5041287;28;20226;-63
2024/01/02 11:01:33;;;;;;;27.27;2.85;;;9.30;99.90;;;;;;5030003;28;20049;-63
2024/01/02 11:04:15;;;;;;;24.35;2.22;;;9.30;99.90;;;;;;5026055;28;20041;-63
2024/01/02 11:06:45;;;;;;;30.98;2.13;;;9.40;99.90;;;;;;5047972;28;20076;-63
2024/01/02 11:09:32;;;;;;;23.80;1.90;;;9.50;99.90;;;;;;5031775;28;20059;-63
2024/01/02 11:11:59;;;;;;;34.65;2.60;;;9.40;99.90;;;;;;5046218;28;21229;-63
2024/01/02 11:14:27;;;;;;;30.23;2.40;;;9.40;99.90;;;;;;5043994;28;20052;-63
2024/01/02 11:16:56;;;;;;;30.88;2.53;;;9.50;99.90;;;;;;5047698;28;20051;-63
2024/01/02 11:19:31;;;;;;;31.35;2.70;;;9.50;99.90;;;;;;5043892;28;20048;-63
2024/01/02 11:22:18;;;;;;;36.83;2.67;;;9.50;99.90;;;;;;5026051;28;20439;-63
2024/01/02 11:24:50;;;;;;;35.65;3.60;;;9.60;99.90;;;;;;5033840;28;20352;-63
2024/01/02 11:27:21;;;;;;;38.53;3.58;;;9.70;99.90;;;;;;5039989;28;20040;-62
2024/01/02 11:29:49;;;;;;;48.17;4.15;;;9.70;99.90;;;;;;5018830;28;20307;-63
2024/01/02 11:32:18;;;;;;;45.33;4.72;;;9.80;99.90;;;;;;5045249;28;20044;-63
2024/01/02 11:35:00;;;;;;;35.47;4.20;;;9.80;99.90;;;;;;5039015;28;20045;-63
2024/01/02 11:37:39;;;;;;;57.13;7.28;;;9.80;99.90;;;;;;5044353;28;20120;-63
2024/01/02 11:40:26;;;;;;;60.58;7.63;;;9.80;99.90;;;;;;5023326;28;20451;-63
2024/01/02 11:43:05;;;;;;;57.83;7.63;;;9.80;99.90;;;;;;5043071;28;20101;-63
2024/01/02 11:45:36;;;;;;;72.85;10.10;;;9.90;99.90;;;;;;5045211;28;20301;-63
2024/01/02 11:48:27;;;;;;;68.35;8.93;;;9.90;99.90;;;;;;5048479;28;20586;-63
2024/01/02 11:50:59;;;;;;;55.50;7.43;;;9.80;99.90;;;;;;5019018;28;20048;-63
2024/01/02 11:54:06;;;;;;;52.55;6.97;;;9.90;99.90;;;;;;5055184;28;20108;-63
2024/01/02 11:56:33;;;;;;;54.35;6.43;;;10.00;99.90;;;;;;5030160;28;20495;-63
2024/01/02 11:59:25;;;;;;;54.05;7.60;;;10.00;99.90;;;;;;5035626;28;20746;-63
2024/01/02 12:02:07;;;;;;;60.25;6.10;;;10.00;99.90;;;;;;5044226;28;20111;-63
2024/01/02 12:04:52;;;;;;;44.60;6.22;;;10.10;99.90;;;;;;5052236;28;20363;-63
2024/01/02 12:07:28;;;;;;;52.65;6.45;;;10.00;99.90;;;;;;5045477;28;20045;-63
2024/01/02 12:09:57;;;;;;;65.38;5.90;;;10.00;99.90;;;;;;5054249;28;20155;-63
2024/01/02 12:13:00;;;;;;;50.38;5.88;;;10.00;99.90;;;;;;5046600;28;20410;-64
2024/01/02 12:15:45;;;;;;;60.50;5.10;;;10.00;99.90;;;;;;5047534;28;20041;-63
2024/01/02 12:18:12;;;;;;;41.47;4.47;;;10.00;99.90;;;;;;5035065;28;20478;-63
2024/01/02 12:21:01;;;;;;;45.28;4.28;;;10.10;99.90;;;;;;5034424;28;20135;-63
2024/01/02 12:23:29;;;;;;;33.78;4.78;;;10.10;99.90;;;;;;5042606;28;20085;-63
2024/01/02 12:26:01;;;;;;;40.38;3.97;;;10.10;99.90;;;;;;5037852;28;20057;-63
2024/01/02 12:28:31;;;;;;;42.55;4.93;;;10.10;99.90;;;;;;5025707;28;20044;-63
2024/01/02 12:31:21;;;;;;;47.95;4.00;;;10.10;99.90;;;;;;5050081;28;20076;-63
2024/01/02 12:33:52;;;;;;;36.03;4.22;;;10.10;99.90;;;;;;5035108;28;20053;-63
2024/01/02 12:36:30;;;;;;;43.47;4.07;;;10.10;99.90;;;;;;5045235;28;20088;-63
2024/01/02 12:39:05;;;;;;;39.30;4.05;;;10.10;99.90;;;;;;5044671;28;20049;-63
2024/01/02 12:41:37;;;;;;;39.50;3.67;;;10.10;99.90;;;;;;5026623;28;20041;-63
2024/01/02 12:44:06;;;;;;;35.55;3.97;;;10.00;99.90;;;;;;5040420;28;20465;-63
2024/01/02 12:46:47;;;;;;;38.47;4.05;;;10.00;99.90;;;;;;5048460;28;20150;-63
2024/01/02 12:49:56;;;;;;;48.53;3.85;;;10.10;99.90;;;;;;5046735;28;20037;-63
2024/01/02 12:52:27;;;;;;;47.00;4.03;;;10.10;99.90;;;;;;5022057;28;20080;-63
2024/01/02 12:55:14;;;;;;;46.83;3.95;;;10.10;99.90;;;;;;5045819;28;20045;-63
2024/01/02 12:57:40;;;;;;;45.10;3.90;;;10.10;99.90;;;;;;5044767;28;20045;-63
2024/01/02 13:00:26;;;;;;;62.67;4.90;;;10.10;99.90;;;;;;5048017;28;20044;-63
2024/01/02 13:02:52;;;;;;;49.10;4.03;;;10.10;99.90;;;;;;5047387;28;20051;-63